createdAt,value
2022-12-19T00:00:08.481Z,69.43
2022-12-19T00:02:42.385Z,65.35
2022-12-19T00:05:10.772Z,67.47
2022-12-19T00:07:37.863Z,66.10
2022-12-19T00:10:06.862Z,62.85
2022-12-19T00:12:33.945Z,72.95
2022-12-19T00:15:00.998Z,73.00
2022-12-19T00:17:29.397Z,67.35
2022-12-19T00:19:57.056Z,74.00
2022-12-19T00:22:24.400Z,74.28
2022-12-19T00:24:52.111Z,67.22
2022-12-19T00:27:19.251Z,60.10
2022-12-19T00:29:46.644Z,63.28
2022-12-19T00:32:14.322Z,76.72
2022-12-19T00:34:43.594Z,67.37
2022-12-19T00:37:11.896Z,68.75
2022-12-19T00:39:39.169Z,59.42
2022-12-19T00:42:06.296Z,62.92
2022-12-19T00:44:33.414Z,73.95
2022-12-19T00:47:00.686Z,64.78
2022-12-19T00:49:27.664Z,51.55
2022-12-19T00:51:57.408Z,64.85
2022-12-19T00:54:24.806Z,65.25
2022-12-19T00:56:51.781Z,66.43
2022-12-19T00:59:26.435Z,76.00
2022-12-19T01:01:57.414Z,61.78
2022-12-19T01:04:29.398Z,77.97
2022-12-19T01:07:02.344Z,70.53
2022-12-19T01:09:33.060Z,64.18
2022-12-19T01:12:19.193Z,68.25
2022-12-19T01:14:48.183Z,59.97
2022-12-19T01:17:15.642Z,66.40
2022-12-19T01:19:44.608Z,68.90
2022-12-19T01:22:14.956Z,64.35
2022-12-19T01:24:42.524Z,75.82
2022-12-19T01:27:09.609Z,60.20
2022-12-19T01:29:52.401Z,56.90
2022-12-19T01:32:22.279Z,60.53
2022-12-19T01:34:49.752Z,66.30
2022-12-19T01:37:17.122Z,68.90
2022-12-19T01:39:44.858Z,51.67
2022-12-19T01:42:24.258Z,63.47
2022-12-19T01:45:13.629Z,60.60
2022-12-19T01:47:53.511Z,65.82
2022-12-19T01:50:32.176Z,54.88
2022-12-19T01:53:00.246Z,57.80
2022-12-19T01:55:28.039Z,69.90
2022-12-19T01:57:57.011Z,61.78
2022-12-19T02:00:24.314Z,67.03
2022-12-19T02:03:02.547Z,66.25
2022-12-19T02:05:30.084Z,53.05
2022-12-19T02:07:59.001Z,69.30
2022-12-19T02:10:26.308Z,70.55
2022-12-19T02:12:53.314Z,50.95
2022-12-19T02:15:21.120Z,61.95
2022-12-19T02:18:06.906Z,68.75
2022-12-19T02:21:07.174Z,57.30
2022-12-19T02:24:06.245Z,59.80
2022-12-19T02:27:00.380Z,55.72
2022-12-19T02:30:04.621Z,64.68
2022-12-19T02:32:42.707Z,81.65
2022-12-19T02:35:22.847Z,59.42
2022-12-19T02:38:09.208Z,74.80
2022-12-19T02:40:45.089Z,71.40
2022-12-19T02:43:15.857Z,75.00
2022-12-19T02:45:44.937Z,64.35
2022-12-19T02:48:17.615Z,76.95
2022-12-19T02:50:50.243Z,66.55
2022-12-19T02:53:21.215Z,70.80
2022-12-19T02:56:30.124Z,67.35
2022-12-19T02:59:03.185Z,72.35
2022-12-19T03:01:42.276Z,70.75
2022-12-19T03:04:46.845Z,73.25
2022-12-19T03:07:37.342Z,67.47
2022-12-19T03:10:07.196Z,56.78
2022-12-19T03:12:40.543Z,61.33
2022-12-19T03:15:11.147Z,66.18
2022-12-19T03:17:38.857Z,58.63
2022-12-19T03:20:19.276Z,64.50
2022-12-19T03:22:47.043Z,66.03
2022-12-19T03:25:14.447Z,60.58
2022-12-19T03:27:42.093Z,65.70
2022-12-19T03:30:12.900Z,68.60
2022-12-19T03:32:44.017Z,66.25
2022-12-19T03:35:17.944Z,67.50
2022-12-19T03:37:49.460Z,73.30
2022-12-19T03:40:23.608Z,58.05
2022-12-19T03:43:11.358Z,63.25
2022-12-19T03:45:49.871Z,70.25
2022-12-19T03:48:24.077Z,69.55
2022-12-19T03:51:05.678Z,70.45
2022-12-19T03:53:32.611Z,73.95
2022-12-19T03:56:11.421Z,80.45
2022-12-19T03:58:42.413Z,58.83
2022-12-19T04:01:09.900Z,63.00
2022-12-19T04:03:37.430Z,67.28
2022-12-19T04:06:06.192Z,62.72
2022-12-19T04:08:35.515Z,72.18
2022-12-19T04:11:10.012Z,67.15
2022-12-19T04:16:22.174Z,66.07
2022-12-19T04:18:55.855Z,72.93
2022-12-19T04:21:36.736Z,71.45
2022-12-19T04:24:15.873Z,59.57
2022-12-19T04:26:48.826Z,56.05
2022-12-19T04:29:16.831Z,69.82
2022-12-19T04:31:44.803Z,57.03
2022-12-19T04:34:11.875Z,67.95
2022-12-19T04:36:38.928Z,65.10
2022-12-19T04:39:06.284Z,64.10
2022-12-19T04:41:33.334Z,67.80
2022-12-19T04:44:00.404Z,59.20
2022-12-19T04:46:27.851Z,77.18
2022-12-19T04:48:54.888Z,73.82
2022-12-19T04:51:21.997Z,63.00
2022-12-19T04:53:49.318Z,66.62
2022-12-19T04:56:16.532Z,60.58
2022-12-19T04:58:43.741Z,68.25
2022-12-19T05:01:13.999Z,65.03
2022-12-19T05:03:41.262Z,64.47
2022-12-19T05:06:10.913Z,64.45
2022-12-19T05:08:39.989Z,68.87
2022-12-19T05:11:08.231Z,57.28
2022-12-19T05:13:35.337Z,60.40
2022-12-19T05:16:04.752Z,62.65
2022-12-19T05:18:32.285Z,70.78
2022-12-19T05:20:59.439Z,62.95
2022-12-19T05:23:27.148Z,72.85
2022-12-19T05:25:57.806Z,63.05
2022-12-19T05:28:25.033Z,69.37
2022-12-19T05:30:52.783Z,71.15
2022-12-19T05:33:20.122Z,67.50
2022-12-19T05:35:47.967Z,73.95
2022-12-19T05:38:15.360Z,59.13
2022-12-19T05:40:43.853Z,62.65
2022-12-19T05:43:10.942Z,59.92
2022-12-19T05:45:39.898Z,63.92
2022-12-19T05:48:09.433Z,75.30
2022-12-19T05:50:36.725Z,58.53
2022-12-19T05:53:09.593Z,70.50
2022-12-19T05:55:36.710Z,68.62
2022-12-19T05:58:03.747Z,70.62
2022-12-19T06:00:31.156Z,69.15
2022-12-19T06:02:58.618Z,66.03
2022-12-19T06:05:25.785Z,70.93
2022-12-19T06:07:52.939Z,74.22
2022-12-19T06:10:20.342Z,87.10
2022-12-19T06:12:47.387Z,82.05
2022-12-19T06:15:14.522Z,78.53
2022-12-19T06:17:41.939Z,82.80
2022-12-19T06:20:09.651Z,78.85
2022-12-19T06:22:36.739Z,77.47
2022-12-19T06:25:04.495Z,76.00
2022-12-19T06:27:31.685Z,95.97
2022-12-19T06:29:58.733Z,74.72
2022-12-19T06:32:26.587Z,87.15
2022-12-19T06:35:04.002Z,87.00
2022-12-19T06:37:31.922Z,98.18
2022-12-19T06:39:59.021Z,90.25
2022-12-19T06:42:26.532Z,89.50
2022-12-19T06:44:56.340Z,86.95
2022-12-19T06:47:24.920Z,92.03
2022-12-19T06:49:52.051Z,87.18
2022-12-19T06:52:19.486Z,88.18
2022-12-19T06:54:46.889Z,82.12
2022-12-19T06:57:14.000Z,96.63
2022-12-19T06:59:41.427Z,95.07
2022-12-19T07:02:27.523Z,82.40
2022-12-19T07:05:02.867Z,88.57
2022-12-19T07:07:30.221Z,103.53
2022-12-19T07:09:57.739Z,89.95
2022-12-19T07:12:24.890Z,85.53
2022-12-19T07:14:53.700Z,93.95
2022-12-19T07:17:23.827Z,97.80
2022-12-19T07:19:51.448Z,83.05
2022-12-19T07:22:18.652Z,89.40
2022-12-19T07:24:46.302Z,94.35
2022-12-19T07:27:13.441Z,87.78
2022-12-19T07:29:40.517Z,88.15
2022-12-19T07:32:07.895Z,77.82
2022-12-19T07:34:35.036Z,104.53
2022-12-19T07:37:02.205Z,88.28
2022-12-19T07:39:29.620Z,105.37
2022-12-19T07:41:56.702Z,101.40
2022-12-19T07:44:26.880Z,81.32
2022-12-19T07:46:54.316Z,82.40
2022-12-19T07:49:22.926Z,88.93
2022-12-19T07:51:50.214Z,92.20
2022-12-19T07:54:17.589Z,84.00
2022-12-19T07:56:44.724Z,86.87
2022-12-19T07:59:13.102Z,68.55
2022-12-19T08:01:40.702Z,68.80
2022-12-19T08:04:08.590Z,63.00
2022-12-19T08:06:40.739Z,63.30
2022-12-19T08:09:09.019Z,64.85
2022-12-19T08:11:36.081Z,68.53
2022-12-19T08:14:03.639Z,53.03
2022-12-19T08:16:31.202Z,59.67
2022-12-19T08:18:58.303Z,51.65
2022-12-19T08:21:25.613Z,57.53
2022-12-19T08:23:53.394Z,68.78
2022-12-19T08:26:25.264Z,64.05
2022-12-19T08:28:57.725Z,60.08
2022-12-19T08:31:26.871Z,56.10
2022-12-19T08:33:56.000Z,58.50
2022-12-19T08:36:24.037Z,57.75
2022-12-19T08:38:52.508Z,53.40
2022-12-19T08:41:20.048Z,44.30
2022-12-19T08:43:51.718Z,29.90
2022-12-19T08:46:20.163Z,35.33
2022-12-19T08:48:47.670Z,34.33
2022-12-19T08:51:15.522Z,37.58
2022-12-19T08:53:44.253Z,43.78
2022-12-19T08:56:13.428Z,26.85
2022-12-19T08:58:40.915Z,32.28
2022-12-19T09:01:13.983Z,37.97
2022-12-19T09:05:01.628Z,30.30
2022-12-19T09:06:29.261Z,44.05
2022-12-19T09:09:00.051Z,45.58
2022-12-19T09:11:27.661Z,47.60
2022-12-19T09:13:57.359Z,39.30
2022-12-19T09:16:27.417Z,33.38
2022-12-19T09:18:58.560Z,35.60
2022-12-19T09:21:31.560Z,30.88
2022-12-19T09:24:06.970Z,33.00
2022-12-19T09:26:35.923Z,33.78
2022-12-19T09:29:06.820Z,32.42
2022-12-19T09:31:47.645Z,36.97
2022-12-19T09:34:24.937Z,29.48
2022-12-19T09:37:00.988Z,28.87
2022-12-19T09:39:28.127Z,37.78
2022-12-19T09:42:03.518Z,33.65
2022-12-19T09:44:52.505Z,34.15
2022-12-19T09:47:27.489Z,35.03
2022-12-19T09:49:55.381Z,36.88
2022-12-19T09:52:43.715Z,35.08
2022-12-19T09:55:33.570Z,37.10
2022-12-19T09:58:12.837Z,47.30
2022-12-19T10:00:56.796Z,40.10
2022-12-19T10:03:51.284Z,45.72
2022-12-19T10:07:19.813Z,36.08
2022-12-19T10:10:57.305Z,47.83
2022-12-19T10:12:38.647Z,32.08
2022-12-19T10:15:18.010Z,33.65
2022-12-19T10:17:58.100Z,30.95
2022-12-19T10:20:42.228Z,30.35
2022-12-19T10:23:31.152Z,38.08
2022-12-19T10:26:18.588Z,35.05
2022-12-19T10:28:51.833Z,36.65
2022-12-19T10:31:33.856Z,36.15
2022-12-19T10:34:24.687Z,33.35
2022-12-19T10:37:27.106Z,33.70
2022-12-19T10:40:02.195Z,36.47
2022-12-19T10:42:53.534Z,39.25
2022-12-19T10:45:22.933Z,33.50
2022-12-19T10:47:55.984Z,38.90
2022-12-19T10:50:26.796Z,39.78
2022-12-19T10:53:04.197Z,26.40
2022-12-19T10:56:06.833Z,34.28
2022-12-19T10:58:38.144Z,38.90
2022-12-19T11:01:17.237Z,38.63
2022-12-19T11:03:51.479Z,38.60
2022-12-19T11:06:49.130Z,37.70
2022-12-19T11:09:29.811Z,40.05
2022-12-19T11:16:44.083Z,27.90
2022-12-19T11:20:27.389Z,37.05
2022-12-19T11:23:23.391Z,34.50
2022-12-19T11:29:26.221Z,42.83
2022-12-19T11:29:33.019Z,36.45
2022-12-19T11:29:44.575Z,36.13
2022-12-19T11:32:44.174Z,34.17
2022-12-19T11:35:15.441Z,34.40
2022-12-19T11:37:58.438Z,40.70
2022-12-19T11:40:43.137Z,37.65
2022-12-19T11:43:45.359Z,37.60
2022-12-19T11:46:39.826Z,32.63
2022-12-19T11:49:13.910Z,32.38
2022-12-19T11:51:52.610Z,34.92
2022-12-19T11:54:32.732Z,38.03
2022-12-19T11:56:59.893Z,37.15
2022-12-19T11:59:36.747Z,36.80
2022-12-19T12:02:52.096Z,36.10
2022-12-19T12:05:41.903Z,41.25
2022-12-19T12:10:33.319Z,34.28
2022-12-19T12:20:18.492Z,35.42
2022-12-19T12:22:43.758Z,39.37
2022-12-19T12:30:42.513Z,35.10
2022-12-19T12:31:00.803Z,33.67
2022-12-19T12:31:49.437Z,42.20
2022-12-19T12:31:58.825Z,36.42
2022-12-19T12:32:02.520Z,45.30
2022-12-19T12:35:42.377Z,35.42
2022-12-19T12:37:52.445Z,33.45
2022-12-19T12:38:26.652Z,32.30
2022-12-19T12:41:13.255Z,32.60
2022-12-19T12:44:00.630Z,33.30
2022-12-19T12:46:37.403Z,31.75
2022-12-19T12:49:24.103Z,39.38
2022-12-19T12:51:55.095Z,42.62
2022-12-19T12:54:29.741Z,38.50
2022-12-19T12:56:57.720Z,35.17
2022-12-19T12:59:31.693Z,35.17
2022-12-19T13:02:13.563Z,42.42
2022-12-19T13:04:56.762Z,44.45
2022-12-19T13:07:50.385Z,37.70
2022-12-19T13:10:31.666Z,40.28
2022-12-19T13:13:15.801Z,39.10
2022-12-19T13:15:46.097Z,36.53
2022-12-19T13:18:32.753Z,33.85
2022-12-19T13:21:02.157Z,39.45
2022-12-19T13:23:29.376Z,34.47
2022-12-19T13:25:56.842Z,38.08
2022-12-19T13:28:23.887Z,30.80
2022-12-19T13:31:21.036Z,31.30
2022-12-19T13:33:53.875Z,34.30
2022-12-19T13:39:50.481Z,32.95
2022-12-19T13:39:54.622Z,34.85
2022-12-19T13:42:55.138Z,38.40
2022-12-19T13:45:41.424Z,40.40
2022-12-19T13:48:16.515Z,33.00
2022-12-19T13:50:47.753Z,37.08
2022-12-19T13:53:27.794Z,42.03
2022-12-19T13:55:59.559Z,41.13
2022-12-19T13:58:47.504Z,43.03
2022-12-19T14:01:21.457Z,44.40
2022-12-19T14:03:51.576Z,41.40
2022-12-19T14:06:26.338Z,39.15
2022-12-19T14:09:37.452Z,39.85
2022-12-19T14:13:41.988Z,37.67
2022-12-19T14:15:13.178Z,38.65
2022-12-19T14:17:40.976Z,37.67
2022-12-19T14:21:19.439Z,35.70
2022-12-19T14:23:10.936Z,42.35
2022-12-19T14:28:19.134Z,44.83
2022-12-19T14:28:48.953Z,45.63
2022-12-19T14:34:18.410Z,39.35
2022-12-19T14:36:40.861Z,41.35
2022-12-19T14:39:27.195Z,40.90
2022-12-19T14:42:31.585Z,40.65
2022-12-19T14:52:34.558Z,40.88
2022-12-19T14:54:00.856Z,38.60
2022-12-19T14:54:40.197Z,47.22
2022-12-19T14:55:58.911Z,45.70
2022-12-19T14:57:28.958Z,42.25
2022-12-19T15:01:07.186Z,47.53
2022-12-19T15:03:31.137Z,43.85
2022-12-19T15:06:49.281Z,44.70
2022-12-19T15:11:00.304Z,39.40
2022-12-19T15:14:47.570Z,47.92
2022-12-19T15:15:22.274Z,51.00
2022-12-19T15:17:52.495Z,64.62
2022-12-19T15:20:20.792Z,51.28
2022-12-19T15:22:48.444Z,51.83
2022-12-19T15:25:44.151Z,50.47
2022-12-19T15:28:18.412Z,35.58
2022-12-19T15:30:56.561Z,44.30
2022-12-19T15:33:24.015Z,48.15
2022-12-19T15:35:51.498Z,49.90
2022-12-19T15:38:18.665Z,54.92
2022-12-19T15:40:45.851Z,47.17
2022-12-19T15:43:53.190Z,57.35
2022-12-19T15:46:05.069Z,42.13
2022-12-19T15:48:37.301Z,48.40
2022-12-19T15:51:04.418Z,48.22
2022-12-19T15:53:40.789Z,49.75
2022-12-19T15:56:27.355Z,42.25
2022-12-19T15:58:57.156Z,43.65
2022-12-19T16:01:26.531Z,49.47
2022-12-19T16:03:56.096Z,46.45
2022-12-19T16:06:23.440Z,50.45
2022-12-19T16:08:50.544Z,40.60
2022-12-19T16:11:23.749Z,42.83
2022-12-19T16:13:56.612Z,46.70
2022-12-19T16:16:23.943Z,49.95
2022-12-19T16:18:50.991Z,52.67
2022-12-19T16:21:33.531Z,44.97
2022-12-19T16:24:01.704Z,45.53
2022-12-19T16:26:33.679Z,47.97
2022-12-19T16:29:01.823Z,40.83
2022-12-19T16:31:29.335Z,50.17
2022-12-19T16:33:56.582Z,46.97
2022-12-19T16:36:23.699Z,54.90
2022-12-19T16:38:51.073Z,47.50
2022-12-19T16:41:21.599Z,47.65
2022-12-19T16:43:49.347Z,47.40
2022-12-19T16:46:30.892Z,47.42
2022-12-19T16:48:58.462Z,50.90
2022-12-19T16:51:27.829Z,54.22
2022-12-19T16:53:58.869Z,62.83
2022-12-19T16:56:39.156Z,45.05
2022-12-19T16:59:14.227Z,43.78
2022-12-19T17:01:44.301Z,42.08
2022-12-19T17:04:21.628Z,47.28
2022-12-19T17:06:50.621Z,43.30
2022-12-19T17:09:20.199Z,44.97
2022-12-19T17:11:50.451Z,47.20
2022-12-19T17:14:20.815Z,46.88
2022-12-19T17:16:48.863Z,47.15
2022-12-19T17:19:23.701Z,47.15
2022-12-19T17:21:51.437Z,45.95
2022-12-19T17:24:18.959Z,36.50
2022-12-19T17:26:46.557Z,44.10
2022-12-19T17:29:14.088Z,45.20
2022-12-19T17:31:42.274Z,51.88
2022-12-19T17:34:21.598Z,45.20
2022-12-19T17:36:49.050Z,44.42
2022-12-19T17:39:22.754Z,48.40
2022-12-19T17:41:51.477Z,42.35
2022-12-19T17:44:18.738Z,40.60
2022-12-19T17:46:47.470Z,40.17
2022-12-19T17:49:24.716Z,44.75
2022-12-19T17:51:52.370Z,47.78
2022-12-19T17:54:21.421Z,47.30
2022-12-19T17:56:49.034Z,46.92
2022-12-19T17:59:16.729Z,48.87
2022-12-19T18:01:46.379Z,52.95
2022-12-19T18:04:16.832Z,47.42
2022-12-19T18:06:44.736Z,47.33
2022-12-19T18:09:25.228Z,44.97
2022-12-19T18:11:53.047Z,46.17
2022-12-19T18:14:20.123Z,49.60
2022-12-19T18:16:50.278Z,41.75
2022-12-19T18:19:23.492Z,45.38
2022-12-19T18:21:50.663Z,45.05
2022-12-19T18:24:18.030Z,47.28
2022-12-19T18:26:45.317Z,44.40
2022-12-19T18:29:12.789Z,40.58
2022-12-19T18:31:48.131Z,45.45
2022-12-19T18:34:24.107Z,45.25
2022-12-19T18:36:53.026Z,41.95
2022-12-19T18:39:25.728Z,45.90
2022-12-19T18:41:53.949Z,39.25
2022-12-19T18:44:23.087Z,47.67
2022-12-19T18:46:51.648Z,46.20
2022-12-19T18:49:19.547Z,40.55
2022-12-19T18:51:47.108Z,42.95
2022-12-19T18:54:17.202Z,41.88
2022-12-19T18:56:45.367Z,45.97
2022-12-19T18:59:12.674Z,44.47
2022-12-19T19:01:43.937Z,46.03
2022-12-19T19:04:13.284Z,58.55
2022-12-19T19:06:48.335Z,40.63
2022-12-19T19:09:18.513Z,46.05
2022-12-19T19:11:47.293Z,42.80
2022-12-19T19:14:14.686Z,48.97
2022-12-19T19:16:42.142Z,42.92
2022-12-19T19:19:14.514Z,40.92
2022-12-19T19:21:42.667Z,42.62
2022-12-19T19:24:17.529Z,44.38
2022-12-19T19:26:44.848Z,45.20
2022-12-19T19:29:13.678Z,51.85
2022-12-19T19:31:45.742Z,62.50
2022-12-19T19:34:21.833Z,48.47
2022-12-19T19:36:53.535Z,52.35
2022-12-19T19:39:22.906Z,50.78
2022-12-19T19:41:50.280Z,44.33
2022-12-19T19:44:17.277Z,51.20
2022-12-19T19:46:44.935Z,43.05
2022-12-19T19:49:12.322Z,47.47
2022-12-19T19:51:39.518Z,50.20
2022-12-19T19:54:06.944Z,49.58
2022-12-19T19:56:34.049Z,46.42
2022-12-19T19:59:01.065Z,50.97
2022-12-19T20:01:28.569Z,46.83
2022-12-19T20:03:56.181Z,53.65
2022-12-19T20:06:26.182Z,48.30
2022-12-19T20:08:53.176Z,54.97
2022-12-19T20:11:20.953Z,50.35
2022-12-19T20:13:48.158Z,50.10
2022-12-19T20:16:17.408Z,49.65
2022-12-19T20:18:52.817Z,47.67
2022-12-19T20:21:20.842Z,55.20
2022-12-19T20:23:48.450Z,47.67
2022-12-19T20:26:16.769Z,47.33
2022-12-19T20:28:49.069Z,48.97
2022-12-19T20:31:23.500Z,41.27
2022-12-19T20:33:53.034Z,49.50
2022-12-19T20:36:22.109Z,50.97
2022-12-19T20:38:49.555Z,45.10
2022-12-19T20:41:17.395Z,48.72
2022-12-19T20:43:45.221Z,51.17
2022-12-19T20:46:15.859Z,41.90
2022-12-19T20:48:43.741Z,46.97
2022-12-19T20:51:12.294Z,46.08
2022-12-19T20:53:41.512Z,60.70
2022-12-19T20:56:15.247Z,48.40
2022-12-19T20:58:43.220Z,43.97
2022-12-19T21:01:16.370Z,52.75
2022-12-19T21:03:45.284Z,59.28
2022-12-19T21:06:15.881Z,52.13
2022-12-19T21:08:43.091Z,52.03
2022-12-19T21:11:11.343Z,55.47
2022-12-19T21:13:39.489Z,52.53
2022-12-19T21:16:08.990Z,53.65
2022-12-19T21:18:38.270Z,48.45
2022-12-19T21:21:06.665Z,49.42
2022-12-19T21:23:34.026Z,50.22
2022-12-19T21:26:02.835Z,48.87
2022-12-19T21:28:30.669Z,47.55
2022-12-19T21:31:08.274Z,51.55
2022-12-19T21:33:35.632Z,55.80
2022-12-19T21:36:14.471Z,51.28
2022-12-19T21:38:42.311Z,50.88
2022-12-19T21:41:10.654Z,51.13
2022-12-19T21:43:38.153Z,49.90
2022-12-19T21:46:11.194Z,51.25
2022-12-19T21:48:40.528Z,52.85
2022-12-19T21:51:09.816Z,56.97
2022-12-19T21:53:38.540Z,54.72
2022-12-19T21:56:26.699Z,46.08
2022-12-19T21:59:00.672Z,57.65
2022-12-19T22:01:29.330Z,51.20
2022-12-19T22:04:06.355Z,51.58
2022-12-19T22:06:35.546Z,54.22
2022-12-19T22:09:04.355Z,46.20
2022-12-19T22:11:31.510Z,58.90
2022-12-19T22:14:02.357Z,54.95
2022-12-19T22:16:29.825Z,59.10
2022-12-19T22:18:57.377Z,55.92
2022-12-19T22:21:25.564Z,50.92
2022-12-19T22:23:57.285Z,60.60
2022-12-19T22:26:26.016Z,53.15
2022-12-19T22:28:55.682Z,54.45
2022-12-19T22:31:25.195Z,55.67
2022-12-19T22:33:55.155Z,53.55
2022-12-19T22:36:28.086Z,55.75
2022-12-19T22:38:57.511Z,57.27
2022-12-19T22:41:25.829Z,51.13
2022-12-19T22:43:53.946Z,56.20
2022-12-19T22:46:27.298Z,52.20
2022-12-19T22:49:00.523Z,54.10
2022-12-19T22:51:28.906Z,64.07
2022-12-19T22:53:57.197Z,52.40
2022-12-19T22:56:27.366Z,47.05
2022-12-19T22:58:58.438Z,56.35
2022-12-19T23:01:27.163Z,45.75
2022-12-19T23:03:56.611Z,49.85
2022-12-19T23:06:25.624Z,51.37
2022-12-19T23:08:53.682Z,54.70
2022-12-19T23:11:27.693Z,41.50
2022-12-19T23:16:22.715Z,47.22
2022-12-19T23:18:49.884Z,51.78
2022-12-19T23:21:19.849Z,47.20
2022-12-19T23:23:49.926Z,52.35
2022-12-19T23:26:21.733Z,48.83
2022-12-19T23:28:57.423Z,53.45
2022-12-19T23:31:27.207Z,44.65
2022-12-19T23:33:55.383Z,47.72
2022-12-19T23:36:44.958Z,47.20
2022-12-19T23:39:11.601Z,39.10
2022-12-19T23:41:39.767Z,52.83
2022-12-19T23:44:08.129Z,52.92
2022-12-19T23:46:35.876Z,57.85
2022-12-19T23:49:03.782Z,51.08
2022-12-19T23:51:30.936Z,58.08
2022-12-19T23:53:58.508Z,46.15
2022-12-19T23:56:28.819Z,52.28
2022-12-19T23:58:56.629Z,50.47
